ウォリス島 の空港の天気 - METARとTAF

ヒヒフォ空港 ( NLWW / WLS ) - ウォリス・フツナ ウォリス島 マタウトゥ
飛行場実況気象(Metar)
観測時間-
風向・風速- -
視程-
天気現象-
-
気温-
湿度-
気圧-
METAR-
過去の天気等 Google飛行場航空写真 Wunderground天気予報

過去48時間のMETAR

飛行場予報(TAF)
発表時間: 11/13 11:00 WFT (11/12 23:00 UTC)
予報対象時間: 13日12時 WFT ~ 14日12時 WFT
風向・風速東 5m/s
視程10km以上
全天の4割程度の雲 雲底高度 700m
14日0時 WFT ~ 14日12時 WFT に一時的に
視程4000m
天気現象しゅう雨
少しの塔状積雲 雲底高度 550m
TAF NLWW 122300Z 1300/1324 08010KT 9999 SCT023
TEMPO 1312/1324 4000 SHRA FEW018TCU